Time;durP1;ratioP1;P1;durP2;ratioP2;P2;SDS_P1;SDS_P2;PMS_P1;PMS_P2;Temp;Humidity;BMP_temperature;BMP_pressure;BME280_temperature;BME280_humidity;BME280_pressure;Samples;Min_cycle;Max_cycle;Signal;HPM_P1;HPM_P2
2021/10/16 00:00:20;;;;;;;22.08;13.50;;;;;;;;;;5070048;28;20036;-59
2021/10/16 00:02:47;;;;;;;20.35;13.80;;;;;;;;;;5069197;28;20086;-58
2021/10/16 00:05:12;;;;;;;22.17;15.55;;;;;;;;;;5068834;28;20028;-59
2021/10/16 00:07:37;;;;;;;20.90;13.77;;;;;;;;;;5071626;28;20086;-59
2021/10/16 00:10:03;;;;;;;21.40;14.18;;;;;;;;;;5071376;28;20052;-59
2021/10/16 00:12:28;;;;;;;19.42;13.68;;;;;;;;;;5070924;28;20038;-59
2021/10/16 00:14:53;;;;;;;18.77;13.15;;;;;;;;;;5070259;28;20021;-58
2021/10/16 00:17:19;;;;;;;19.65;13.20;;;;;;;;;;5071266;28;20059;-55
2021/10/16 00:19:44;;;;;;;20.98;13.60;;;;;;;;;;5070638;28;20024;-59
2021/10/16 00:22:10;;;;;;;18.10;12.52;;;;;;;;;;5070855;28;20464;-58
2021/10/16 00:24:35;;;;;;;19.95;12.98;;;;;;;;;;5070724;28;20365;-59
2021/10/16 00:27:00;;;;;;;20.38;13.93;;;;;;;;;;5067009;28;20422;-58
2021/10/16 00:29:25;;;;;;;17.33;12.73;;;;;;;;;;5074802;28;20120;-59
2021/10/16 00:31:51;;;;;;;23.83;14.45;;;;;;;;;;5074366;28;20078;-59
2021/10/16 00:34:19;;;;;;;23.10;14.95;;;;;;;;;;5073847;28;20036;-59
2021/10/16 00:36:44;;;;;;;23.00;13.88;;;;;;;;;;5067661;28;20021;-59
2021/10/16 00:39:09;;;;;;;27.02;15.07;;;;;;;;;;5074359;28;20020;-58
2021/10/16 00:41:34;;;;;;;22.08;13.75;;;;;;;;;;5074319;28;20031;-58
2021/10/16 00:44:19;;;;;;;22.50;14.60;;;;;;;;;;5073768;28;20028;-57
2021/10/16 00:46:45;;;;;;;22.58;13.82;;;;;;;;;;5073970;28;20036;-58
2021/10/16 00:49:11;;;;;;;22.88;13.68;;;;;;;;;;5074608;28;20035;-57
2021/10/16 00:51:37;;;;;;;16.63;11.80;;;;;;;;;;5073404;28;20123;-58
2021/10/16 00:54:03;;;;;;;18.02;12.05;;;;;;;;;;5073791;28;20111;-58
2021/10/16 00:56:28;;;;;;;19.05;12.55;;;;;;;;;;5070859;28;20028;-59
2021/10/16 00:58:54;;;;;;;16.55;12.23;;;;;;;;;;5074195;28;20079;-59
2021/10/16 01:01:19;;;;;;;16.40;11.65;;;;;;;;;;5073851;28;20044;-59
2021/10/16 01:03:44;;;;;;;14.82;10.32;;;;;;;;;;5060297;28;20077;-59
2021/10/16 01:06:10;;;;;;;16.27;11.27;;;;;;;;;;5071996;28;20078;-55
2021/10/16 01:08:35;;;;;;;15.35;10.35;;;;;;;;;;5072362;28;20048;-57
2021/10/16 01:11:00;;;;;;;18.85;11.35;;;;;;;;;;5073564;28;20077;-58
2021/10/16 01:13:27;;;;;;;13.68;9.55;;;;;;;;;;5072175;28;20440;-58
2021/10/16 01:15:52;;;;;;;11.57;8.57;;;;;;;;;;5073653;28;20420;-57
2021/10/16 01:18:19;;;;;;;12.50;8.85;;;;;;;;;;5073030;28;20024;-59
2021/10/16 01:20:46;;;;;;;9.45;7.68;;;;;;;;;;5073640;28;20024;-57
2021/10/16 01:23:12;;;;;;;11.85;8.77;;;;;;;;;;5073252;28;20029;-58
2021/10/16 01:25:37;;;;;;;10.60;8.88;;;;;;;;;;5071582;28;20392;-60
2021/10/16 01:28:03;;;;;;;14.98;9.07;;;;;;;;;;5072351;28;20465;-59
2021/10/16 01:30:29;;;;;;;15.27;10.32;;;;;;;;;;5073215;28;20075;-59
2021/10/16 01:32:54;;;;;;;16.95;11.00;;;;;;;;;;5073827;28;20025;-58
2021/10/16 01:35:19;;;;;;;17.52;10.63;;;;;;;;;;5072841;28;20077;-59
2021/10/16 01:37:46;;;;;;;18.88;11.55;;;;;;;;;;5072622;28;20020;-59
2021/10/16 01:40:11;;;;;;;17.98;11.57;;;;;;;;;;5071852;28;20028;-58
2021/10/16 01:42:41;;;;;;;21.17;11.88;;;;;;;;;;5073691;28;20023;-57
2021/10/16 01:45:07;;;;;;;17.05;11.38;;;;;;;;;;5073345;28;20095;-59
2021/10/16 01:47:43;;;;;;;17.75;11.77;;;;;;;;;;5073292;28;20457;-60
2021/10/16 01:50:08;;;;;;;15.75;10.98;;;;;;;;;;5071630;28;20036;-56
2021/10/16 01:52:33;;;;;;;14.85;10.90;;;;;;;;;;5072638;28;20032;-58
2021/10/16 01:54:59;;;;;;;18.92;11.80;;;;;;;;;;5072972;28;20031;-57
2021/10/16 01:57:24;;;;;;;17.80;11.05;;;;;;;;;;5069755;28;20032;-59
2021/10/16 01:59:49;;;;;;;14.52;10.18;;;;;;;;;;5071738;28;20103;-58
2021/10/16 02:02:14;;;;;;;15.57;10.68;;;;;;;;;;5071522;28;20477;-59
2021/10/16 02:04:39;;;;;;;12.20;8.45;;;;;;;;;;5071878;28;20036;-58
2021/10/16 02:07:05;;;;;;;12.75;8.80;;;;;;;;;;5072395;28;20028;-58
2021/10/16 02:09:30;;;;;;;10.73;7.65;;;;;;;;;;5072414;28;20025;-59
2021/10/16 02:11:55;;;;;;;13.85;9.80;;;;;;;;;;5072916;28;20021;-59
2021/10/16 02:14:20;;;;;;;20.98;12.15;;;;;;;;;;5072561;28;20077;-60
2021/10/16 02:16:45;;;;;;;18.88;11.85;;;;;;;;;;5072473;28;20012;-59
2021/10/16 02:19:11;;;;;;;18.17;12.15;;;;;;;;;;5072406;28;20365;-58
2021/10/16 02:21:36;;;;;;;21.70;13.85;;;;;;;;;;5070549;28;20032;-59
2021/10/16 02:24:01;;;;;;;15.05;11.30;;;;;;;;;;5072517;28;20028;-59
2021/10/16 02:26:26;;;;;;;20.05;11.77;;;;;;;;;;5071447;28;20052;-59
2021/10/16 02:28:52;;;;;;;19.10;12.02;;;;;;;;;;5072032;28;20029;-58
2021/10/16 02:31:17;;;;;;;19.98;12.10;;;;;;;;;;5071734;28;20056;-59
2021/10/16 02:33:43;;;;;;;17.83;11.30;;;;;;;;;;5071018;28;20125;-58
2021/10/16 02:36:08;;;;;;;19.10;12.10;;;;;;;;;;5071703;28;20024;-59
2021/10/16 02:38:33;;;;;;;17.75;11.55;;;;;;;;;;5072182;28;20104;-59
2021/10/16 02:40:58;;;;;;;18.20;10.88;;;;;;;;;;5071603;28;20028;-55
2021/10/16 02:43:24;;;;;;;16.80;10.70;;;;;;;;;;5071928;28;20123;-59
2021/10/16 02:45:49;;;;;;;19.85;12.05;;;;;;;;;;5070771;28;20036;-58
2021/10/16 02:48:14;;;;;;;16.52;10.45;;;;;;;;;;5071341;28;20047;-57
2021/10/16 02:50:40;;;;;;;16.20;9.95;;;;;;;;;;5071142;28;20128;-58
2021/10/16 02:53:05;;;;;;;25.38;13.02;;;;;;;;;;5070248;28;20070;-59
2021/10/16 02:55:30;;;;;;;21.52;12.77;;;;;;;;;;5068787;28;20115;-57
2021/10/16 02:57:55;;;;;;;28.30;15.63;;;;;;;;;;5072147;28;20070;-59
2021/10/16 03:00:21;;;;;;;32.15;15.68;;;;;;;;;;5071449;28;20033;-56
2021/10/16 03:02:46;;;;;;;24.80;14.63;;;;;;;;;;5072077;28;20020;-58
2021/10/16 03:05:11;;;;;;;26.27;15.05;;;;;;;;;;5071262;28;20469;-58
2021/10/16 03:07:37;;;;;;;30.02;15.40;;;;;;;;;;5072313;28;20070;-58
2021/10/16 03:10:02;;;;;;;25.10;14.68;;;;;;;;;;5071085;28;20044;-59
2021/10/16 03:12:27;;;;;;;21.20;13.07;;;;;;;;;;5071969;28;20107;-59
2021/10/16 03:14:53;;;;;;;24.98;13.93;;;;;;;;;;5068533;28;20031;-59
2021/10/16 03:17:18;;;;;;;26.83;12.90;;;;;;;;;;5071283;28;20036;-58
2021/10/16 03:19:44;;;;;;;24.00;13.27;;;;;;;;;;5071132;28;20021;-59
2021/10/16 03:22:09;;;;;;;23.60;12.30;;;;;;;;;;5071227;28;20071;-57
2021/10/16 03:24:35;;;;;;;18.92;11.32;;;;;;;;;;5071267;28;20035;-57
2021/10/16 03:27:01;;;;;;;15.30;10.00;;;;;;;;;;5067998;28;20492;-60
2021/10/16 03:29:26;;;;;;;19.25;11.55;;;;;;;;;;5070991;28;20025;-58
2021/10/16 03:31:52;;;;;;;22.85;11.57;;;;;;;;;;5071370;28;20449;-55
2021/10/16 03:34:17;;;;;;;20.05;12.27;;;;;;;;;;5070192;28;20451;-58
2021/10/16 03:36:42;;;;;;;17.20;10.23;;;;;;;;;;5069764;28;20487;-57
2021/10/16 03:39:07;;;;;;;22.60;11.95;;;;;;;;;;5069797;28;20032;-57
2021/10/16 03:41:33;;;;;;;16.60;10.90;;;;;;;;;;5070961;28;20029;-59
2021/10/16 03:43:58;;;;;;;16.65;10.90;;;;;;;;;;5069760;28;20017;-56
2021/10/16 03:46:23;;;;;;;19.35;10.90;;;;;;;;;;5070956;28;20035;-57
2021/10/16 03:48:48;;;;;;;21.20;11.30;;;;;;;;;;5070080;28;20481;-59
2021/10/16 03:51:13;;;;;;;19.58;11.50;;;;;;;;;;5070803;28;20028;-60
2021/10/16 03:53:39;;;;;;;15.50;10.32;;;;;;;;;;5071033;28;20073;-58
2021/10/16 03:56:04;;;;;;;16.52;10.25;;;;;;;;;;5068136;28;20016;-59
2021/10/16 03:58:30;;;;;;;15.07;9.38;;;;;;;;;;5071026;28;20037;-58
2021/10/16 04:01:01;;;;;;;12.18;8.63;;;;;;;;;;5071486;28;20036;-58
2021/10/16 04:03:27;;;;;;;14.93;9.10;;;;;;;;;;5072948;28;20103;-56
2021/10/16 04:05:52;;;;;;;19.02;10.07;;;;;;;;;;5074027;28;20103;-59
2021/10/16 04:08:17;;;;;;;13.80;9.20;;;;;;;;;;5074229;28;20268;-59
2021/10/16 04:10:42;;;;;;;13.32;8.98;;;;;;;;;;5074876;28;20507;-59
2021/10/16 04:13:07;;;;;;;11.60;8.55;;;;;;;;;;5074319;28;20131;-57
2021/10/16 04:15:33;;;;;;;13.38;9.45;;;;;;;;;;5074928;28;20040;-57
2021/10/16 04:17:58;;;;;;;11.38;8.30;;;;;;;;;;5075276;28;20028;-58
2021/10/16 04:20:23;;;;;;;11.38;7.78;;;;;;;;;;5074595;28;20040;-58
2021/10/16 04:22:48;;;;;;;14.55;8.93;;;;;;;;;;5073939;28;20041;-53
2021/10/16 04:25:14;;;;;;;16.58;10.52;;;;;;;;;;5072754;28;20053;-58
2021/10/16 04:27:39;;;;;;;15.73;9.13;;;;;;;;;;5071938;28;20055;-57
2021/10/16 04:30:05;;;;;;;13.82;9.75;;;;;;;;;;5074183;28;20024;-57
2021/10/16 04:32:30;;;;;;;15.48;9.38;;;;;;;;;;5074681;28;20044;-58
2021/10/16 04:34:55;;;;;;;15.98;10.50;;;;;;;;;;5073280;28;20017;-58
2021/10/16 04:37:21;;;;;;;16.60;10.70;;;;;;;;;;5074013;28;20063;-58
2021/10/16 04:39:46;;;;;;;17.27;10.15;;;;;;;;;;5074098;28;20031;-58
2021/10/16 04:42:12;;;;;;;20.67;11.27;;;;;;;;;;5074718;28;20435;-58
2021/10/16 04:44:38;;;;;;;14.48;9.77;;;;;;;;;;5073410;28;20484;-59
2021/10/16 04:47:03;;;;;;;18.90;10.98;;;;;;;;;;5074646;28;20107;-59
2021/10/16 04:49:29;;;;;;;19.83;11.20;;;;;;;;;;5074567;28;20555;-58
2021/10/16 04:51:54;;;;;;;15.85;9.70;;;;;;;;;;5072649;28;20078;-60
2021/10/16 04:54:19;;;;;;;16.75;9.95;;;;;;;;;;5073588;28;20032;-58
2021/10/16 04:56:44;;;;;;;17.70;10.05;;;;;;;;;;5070216;28;20032;-58
2021/10/16 04:59:09;;;;;;;17.88;10.60;;;;;;;;;;5073145;28;20052;-58
2021/10/16 05:01:35;;;;;;;15.05;9.80;;;;;;;;;;5074075;28;20073;-58
2021/10/16 05:04:00;;;;;;;15.88;10.00;;;;;;;;;;5073783;28;20069;-57
2021/10/16 05:06:30;;;;;;;14.15;8.38;;;;;;;;;;5071451;28;20025;-56
2021/10/16 05:08:55;;;;;;;15.00;8.73;;;;;;;;;;5074270;28;20035;-57
2021/10/16 05:11:20;;;;;;;12.85;8.45;;;;;;;;;;5073713;28;20028;-57
2021/10/16 05:13:45;;;;;;;13.95;8.43;;;;;;;;;;5073667;28;20499;-58
2021/10/16 05:16:10;;;;;;;11.35;8.27;;;;;;;;;;5071276;28;20457;-58
2021/10/16 05:18:35;;;;;;;9.85;8.23;;;;;;;;;;5074038;28;20496;-58
2021/10/16 05:21:01;;;;;;;12.88;7.95;;;;;;;;;;5073195;28;20491;-58
2021/10/16 05:23:26;;;;;;;10.15;7.80;;;;;;;;;;5073666;28;20029;-58
2021/10/16 05:25:52;;;;;;;8.27;7.15;;;;;;;;;;5069881;28;20373;-58
2021/10/16 05:28:17;;;;;;;12.82;8.25;;;;;;;;;;5073103;28;20419;-58
2021/10/16 05:30:42;;;;;;;12.32;8.63;;;;;;;;;;5073239;28;20033;-58
2021/10/16 05:33:07;;;;;;;12.25;8.75;;;;;;;;;;5073988;28;20104;-57
2021/10/16 05:35:32;;;;;;;11.93;8.07;;;;;;;;;;5071332;28;20370;-59
2021/10/16 05:37:58;;;;;;;11.43;7.97;;;;;;;;;;5073055;28;20382;-59
2021/10/16 05:40:23;;;;;;;10.20;7.15;;;;;;;;;;5073549;28;20035;-58
2021/10/16 05:42:48;;;;;;;10.77;7.07;;;;;;;;;;5073344;28;20036;-57
2021/10/16 05:45:13;;;;;;;9.93;6.95;;;;;;;;;;5073431;28;20395;-57
2021/10/16 05:47:41;;;;;;;10.55;7.40;;;;;;;;;;5071391;28;20489;-58
2021/10/16 05:50:07;;;;;;;9.95;7.10;;;;;;;;;;5073182;28;20059;-57
2021/10/16 05:52:32;;;;;;;11.95;7.78;;;;;;;;;;5072509;28;20032;-58
2021/10/16 05:54:57;;;;;;;9.35;7.43;;;;;;;;;;5073094;28;20025;-59
2021/10/16 05:57:22;;;;;;;14.52;7.90;;;;;;;;;;5069680;28;20025;-56
2021/10/16 05:59:48;;;;;;;11.65;7.13;;;;;;;;;;5069386;28;20403;-57
2021/10/16 06:02:13;;;;;;;17.55;9.73;;;;;;;;;;5071485;28;20028;-58
2021/10/16 06:04:38;;;;;;;20.20;13.95;;;;;;;;;;5070452;28;20043;-54
2021/10/16 06:07:03;;;;;;;15.55;10.18;;;;;;;;;;5053697;28;20017;-58
2021/10/16 06:09:29;;;;;;;11.15;8.40;;;;;;;;;;5071934;28;20032;-56
2021/10/16 06:11:54;;;;;;;15.38;9.63;;;;;;;;;;5072272;28;20016;-58
2021/10/16 06:14:19;;;;;;;14.43;10.10;;;;;;;;;;5072134;28;20024;-58
2021/10/16 06:16:44;;;;;;;13.88;10.10;;;;;;;;;;5070347;28;20093;-59
2021/10/16 06:19:09;;;;;;;12.40;8.45;;;;;;;;;;5066272;28;20028;-59
2021/10/16 06:21:35;;;;;;;15.88;9.23;;;;;;;;;;5071289;28;20041;-59
2021/10/16 06:24:00;;;;;;;14.70;9.80;;;;;;;;;;5072089;28;20063;-59
2021/10/16 06:26:25;;;;;;;15.82;9.70;;;;;;;;;;5065851;28;20485;-59
2021/10/16 06:28:50;;;;;;;14.20;11.85;;;;;;;;;;5071190;28;20020;-59
2021/10/16 06:31:16;;;;;;;20.33;14.63;;;;;;;;;;5071212;28;20488;-57
2021/10/16 06:33:41;;;;;;;18.38;12.13;;;;;;;;;;5070674;28;20032;-59
2021/10/16 06:36:06;;;;;;;16.30;12.13;;;;;;;;;;5071729;28;20021;-59
2021/10/16 06:38:31;;;;;;;20.15;12.88;;;;;;;;;;5071905;28;20066;-59
2021/10/16 06:40:56;;;;;;;14.18;11.05;;;;;;;;;;5071943;28;20056;-57
2021/10/16 06:43:22;;;;;;;13.88;10.77;;;;;;;;;;5071631;28;20111;-59
2021/10/16 06:45:47;;;;;;;14.73;11.38;;;;;;;;;;5072005;28;20508;-58
2021/10/16 06:48:12;;;;;;;14.68;11.75;;;;;;;;;;5070833;28;20040;-58
2021/10/16 06:50:37;;;;;;;18.23;10.75;;;;;;;;;;5071264;28;20375;-58
2021/10/16 06:53:02;;;;;;;14.27;10.23;;;;;;;;;;5071037;28;20056;-57
2021/10/16 06:55:28;;;;;;;12.43;8.25;;;;;;;;;;5068009;28;20691;-56
2021/10/16 06:57:53;;;;;;;11.98;7.95;;;;;;;;;;5070134;28;20043;-56
2021/10/16 07:00:18;;;;;;;9.65;8.10;;;;;;;;;;5070577;28;20401;-59
2021/10/16 07:02:43;;;;;;;11.77;8.20;;;;;;;;;;5071842;28;20028;-57
2021/10/16 07:05:09;;;;;;;11.40;8.00;;;;;;;;;;5068615;28;20460;-54
2021/10/16 07:07:34;;;;;;;11.75;7.00;;;;;;;;;;5071409;28;20017;-59
2021/10/16 07:09:59;;;;;;;12.02;7.65;;;;;;;;;;5087184;28;20450;-58
2021/10/16 07:12:26;;;;;;;13.38;8.18;;;;;;;;;;5070764;28;20104;-59
2021/10/16 07:14:51;;;;;;;12.77;7.82;;;;;;;;;;5071005;28;20020;-58
2021/10/16 07:17:17;;;;;;;9.50;7.00;;;;;;;;;;5071977;28;20021;-58
2021/10/16 07:19:42;;;;;;;10.88;7.35;;;;;;;;;;5085533;28;20032;-58
2021/10/16 07:22:07;;;;;;;12.00;7.30;;;;;;;;;;5070352;28;20043;-58
2021/10/16 07:24:33;;;;;;;15.13;7.63;;;;;;;;;;5070720;28;20048;-57
2021/10/16 07:26:58;;;;;;;10.65;7.18;;;;;;;;;;5066618;28;20092;-58
2021/10/16 07:29:24;;;;;;;10.02;7.57;;;;;;;;;;5071081;28;20032;-58
2021/10/16 07:31:49;;;;;;;10.27;7.25;;;;;;;;;;5070361;28;20040;-59
2021/10/16 07:34:15;;;;;;;11.23;7.05;;;;;;;;;;5070688;28;20029;-59
2021/10/16 07:36:40;;;;;;;9.95;6.63;;;;;;;;;;5070706;28;20032;-59
2021/10/16 07:39:06;;;;;;;8.52;5.55;;;;;;;;;;5074891;28;20100;-59
2021/10/16 07:41:32;;;;;;;9.95;5.43;;;;;;;;;;5075276;28;20033;-56
2021/10/16 07:43:57;;;;;;;9.00;4.75;;;;;;;;;;5068056;28;20365;-57
2021/10/16 07:46:22;;;;;;;12.73;5.82;;;;;;;;;;5074716;28;20538;-58
2021/10/16 07:48:48;;;;;;;7.38;4.15;;;;;;;;;;5075547;28;20444;-57
2021/10/16 07:51:13;;;;;;;6.80;3.75;;;;;;;;;;5074550;28;20024;-57
2021/10/16 07:53:38;;;;;;;10.05;4.18;;;;;;;;;;5073895;28;20024;-52
2021/10/16 07:56:04;;;;;;;9.10;4.75;;;;;;;;;;5069475;28;20052;-57
2021/10/16 07:58:29;;;;;;;4.97;3.30;;;;;;;;;;5074686;28;20056;-56
2021/10/16 08:00:54;;;;;;;8.00;3.95;;;;;;;;;;5073472;28;20027;-56
2021/10/16 08:03:19;;;;;;;6.85;3.58;;;;;;;;;;5075116;28;20040;-57
2021/10/16 08:05:44;;;;;;;7.60;4.60;;;;;;;;;;5072813;28;20551;-57
2021/10/16 08:08:12;;;;;;;8.32;4.10;;;;;;;;;;5075016;28;20553;-55
2021/10/16 08:10:37;;;;;;;7.68;3.95;;;;;;;;;;5074307;28;20098;-56
2021/10/16 08:13:02;;;;;;;6.00;3.65;;;;;;;;;;5074247;28;20062;-55
2021/10/16 08:15:27;;;;;;;9.82;3.40;;;;;;;;;;5074294;28;20384;-55
2021/10/16 08:17:52;;;;;;;7.32;4.05;;;;;;;;;;5074286;28;20020;-54
2021/10/16 08:20:18;;;;;;;8.88;3.63;;;;;;;;;;5074265;28;20431;-58
2021/10/16 08:22:43;;;;;;;7.68;2.60;;;;;;;;;;5070629;28;20032;-58
2021/10/16 08:25:10;;;;;;;9.38;3.30;;;;;;;;;;5072569;28;20579;-56
2021/10/16 08:27:35;;;;;;;8.07;3.03;;;;;;;;;;5066929;28;20028;-58
2021/10/16 08:30:00;;;;;;;10.05;2.97;;;;;;;;;;5073469;28;20462;-54
2021/10/16 08:32:25;;;;;;;7.07;2.22;;;;;;;;;;5056154;28;20031;-59
2021/10/16 08:34:50;;;;;;;6.25;2.40;;;;;;;;;;5073577;28;20370;-54
2021/10/16 08:37:16;;;;;;;7.18;2.47;;;;;;;;;;5072397;28;20016;-55
2021/10/16 08:39:41;;;;;;;7.55;2.75;;;;;;;;;;5073641;28;20036;-58
2021/10/16 08:42:06;;;;;;;6.75;2.45;;;;;;;;;;5074493;28;20031;-56
2021/10/16 08:44:31;;;;;;;9.05;2.38;;;;;;;;;;5073780;28;20446;-57
2021/10/16 08:46:57;;;;;;;5.50;2.38;;;;;;;;;;5073969;28;20515;-58
2021/10/16 08:49:23;;;;;;;9.15;1.98;;;;;;;;;;5072081;28;20024;-58
2021/10/16 08:51:48;;;;;;;7.97;2.03;;;;;;;;;;5072460;28;20059;-54
2021/10/16 08:54:14;;;;;;;11.10;2.08;;;;;;;;;;5073345;28;20493;-54
2021/10/16 08:56:39;;;;;;;6.30;1.70;;;;;;;;;;5069522;28;20032;-57
2021/10/16 08:59:04;;;;;;;9.32;1.65;;;;;;;;;;5061823;28;20473;-56
2021/10/16 09:01:29;;;;;;;7.40;1.90;;;;;;;;;;5067865;28;20044;-57
2021/10/16 09:03:57;;;;;;;7.47;1.65;;;;;;;;;;5073882;28;20031;-58
2021/10/16 09:06:27;;;;;;;7.35;1.40;;;;;;;;;;5071448;28;20020;-57
2021/10/16 09:08:52;;;;;;;7.60;1.75;;;;;;;;;;5073490;28;20016;-58
2021/10/16 09:11:20;;;;;;;5.65;1.42;;;;;;;;;;5071012;28;20504;-58
2021/10/16 09:13:47;;;;;;;9.57;1.40;;;;;;;;;;5057982;28;20024;-58
2021/10/16 09:16:22;;;;;;;9.57;1.50;;;;;;;;;;5064942;28;20495;-58
2021/10/16 09:19:03;;;;;;;4.45;1.17;;;;;;;;;;5072660;28;20016;-58
2021/10/16 09:21:29;;;;;;;6.43;1.60;;;;;;;;;;5071314;28;20603;-56
2021/10/16 09:24:08;;;;;;;10.43;1.52;;;;;;;;;;5070242;28;20476;-57
2021/10/16 09:26:34;;;;;;;6.05;1.17;;;;;;;;;;5065464;28;20450;-56
2021/10/16 09:29:00;;;;;;;5.80;1.13;;;;;;;;;;5075428;28;20029;-57
2021/10/16 09:31:31;;;;;;;6.35;1.40;;;;;;;;;;5083160;28;20028;-57
2021/10/16 09:33:56;;;;;;;7.65;1.40;;;;;;;;;;5067807;28;20496;-56
2021/10/16 09:36:25;;;;;;;4.22;0.73;;;;;;;;;;5071098;28;20029;-57
2021/10/16 09:38:50;;;;;;;5.80;1.00;;;;;;;;;;5072354;28;20043;-55
2021/10/16 09:41:22;;;;;;;8.18;1.42;;;;;;;;;;5071897;28;20021;-57
2021/10/16 09:43:47;;;;;;;6.35;1.70;;;;;;;;;;5071928;28;20043;-57
2021/10/16 09:46:14;;;;;;;9.30;1.52;;;;;;;;;;5074815;28;20473;-56
2021/10/16 09:48:39;;;;;;;13.95;1.60;;;;;;;;;;5072204;28;20539;-55
2021/10/16 09:51:05;;;;;;;9.23;1.02;;;;;;;;;;5072986;28;20051;-57
2021/10/16 09:53:30;;;;;;;4.60;0.70;;;;;;;;;;5072128;28;20663;-55
2021/10/16 09:55:55;;;;;;;6.72;1.15;;;;;;;;;;5066618;28;20510;-56
2021/10/16 09:58:24;;;;;;;11.75;1.95;;;;;;;;;;5071486;28;20039;-52
2021/10/16 10:00:53;;;;;;;6.40;1.05;;;;;;;;;;5074659;28;20017;-57
2021/10/16 10:03:20;;;;;;;6.50;2.05;;;;;;;;;;5072566;28;20052;-57
2021/10/16 10:05:45;;;;;;;6.07;1.08;;;;;;;;;;5072055;28;20022;-53
2021/10/16 10:08:11;;;;;;;3.58;0.68;;;;;;;;;;5071989;28;20024;-51
2021/10/16 10:10:36;;;;;;;6.07;1.00;;;;;;;;;;5076356;28;20334;-57
2021/10/16 10:13:01;;;;;;;5.60;1.20;;;;;;;;;;5069716;28;20100;-56
2021/10/16 10:15:27;;;;;;;2.67;0.50;;;;;;;;;;5085918;28;20093;-56
2021/10/16 10:17:52;;;;;;;4.17;0.83;;;;;;;;;;5083277;28;20052;-55
2021/10/16 10:20:18;;;;;;;6.65;0.98;;;;;;;;;;5085674;28;20324;-54
2021/10/16 10:22:46;;;;;;;4.25;0.88;;;;;;;;;;5073592;28;20032;-56
2021/10/16 10:25:25;;;;;;;5.68;0.88;;;;;;;;;;5071832;28;20059;-53
2021/10/16 10:27:51;;;;;;;4.28;0.80;;;;;;;;;;5071425;28;20024;-58
2021/10/16 10:30:39;;;;;;;4.97;1.17;;;;;;;;;;5075574;28;20088;-54
2021/10/16 10:33:16;;;;;;;5.30;1.08;;;;;;;;;;5071979;28;20060;-55
2021/10/16 10:35:48;;;;;;;4.80;0.70;;;;;;;;;;5065111;28;20055;-58
2021/10/16 10:38:32;;;;;;;4.60;1.17;;;;;;;;;;5067923;28;20029;-56
2021/10/16 10:40:57;;;;;;;4.80;0.52;;;;;;;;;;5083477;28;20025;-56
2021/10/16 10:43:52;;;;;;;2.97;0.82;;;;;;;;;;5083343;28;20028;-57
2021/10/16 10:46:22;;;;;;;2.80;0.73;;;;;;;;;;5058103;28;20036;-56
2021/10/16 10:48:47;;;;;;;2.80;0.43;;;;;;;;;;5072132;28;20020;-56
2021/10/16 10:51:33;;;;;;;4.22;0.73;;;;;;;;;;5070732;28;20031;-57
2021/10/16 10:54:18;;;;;;;4.35;0.63;;;;;;;;;;5071386;28;20187;-56
2021/10/16 10:56:45;;;;;;;;;;;;;;;;;;5066266;28;20101;-51
2021/10/16 10:59:12;;;;;;;5.43;0.55;;;;;;;;;;5070935;28;19958;-58
2021/10/16 11:02:04;;;;;;;3.75;0.88;;;;;;;;;;5068257;28;20071;-58
2021/10/16 11:04:40;;;;;;;3.97;0.70;;;;;;;;;;5076057;28;20044;-56
2021/10/16 11:07:09;;;;;;;2.53;0.50;;;;;;;;;;5070242;28;20030;-56
2021/10/16 11:09:35;;;;;;;1.98;0.55;;;;;;;;;;5071259;28;20103;-56
2021/10/16 11:12:00;;;;;;;2.22;0.40;;;;;;;;;;5082021;28;20633;-56
2021/10/16 11:14:29;;;;;;;2.30;0.40;;;;;;;;;;5074459;28;20028;-57
2021/10/16 11:17:04;;;;;;;3.72;0.80;;;;;;;;;;5074202;28;20427;-56
2021/10/16 11:19:29;;;;;;;4.07;0.68;;;;;;;;;;5066040;28;20075;-56
2021/10/16 11:21:58;;;;;;;4.78;0.30;;;;;;;;;;5071987;28;20546;-55
2021/10/16 11:24:24;;;;;;;2.53;0.70;;;;;;;;;;5076068;28;20107;-57
2021/10/16 11:26:53;;;;;;;4.68;0.40;;;;;;;;;;5063334;28;20118;-56
2021/10/16 11:29:29;;;;;;;3.10;0.60;;;;;;;;;;5070613;28;20071;-56
2021/10/16 11:32:29;;;;;;;4.85;0.80;;;;;;;;;;5074943;28;20105;-57
2021/10/16 11:34:59;;;;;;;2.05;0.52;;;;;;;;;;5056908;28;20025;-57
2021/10/16 11:37:38;;;;;;;3.22;0.65;;;;;;;;;;5049861;28;20032;-56
2021/10/16 11:40:05;;;;;;;4.70;0.80;;;;;;;;;;5048100;28;20079;-56
2021/10/16 11:42:30;;;;;;;2.85;0.50;;;;;;;;;;5055170;28;20040;-56
2021/10/16 11:44:56;;;;;;;2.85;0.68;;;;;;;;;;5047843;28;20488;-57
2021/10/16 11:47:21;;;;;;;3.25;0.60;;;;;;;;;;5049155;28;20508;-57
2021/10/16 11:49:46;;;;;;;5.57;1.00;;;;;;;;;;5056074;28;20052;-55
2021/10/16 11:52:24;;;;;;;3.83;0.60;;;;;;;;;;5056758;28;20497;-51
2021/10/16 11:55:07;;;;;;;2.67;0.90;;;;;;;;;;5041983;28;20302;-56
2021/10/16 11:57:32;;;;;;;1.75;0.60;;;;;;;;;;5045755;28;20120;-56
2021/10/16 12:00:14;;;;;;;3.00;0.63;;;;;;;;;;5047720;28;20051;-57
2021/10/16 12:02:39;;;;;;;3.28;0.90;;;;;;;;;;5050350;28;20275;-57
2021/10/16 12:05:10;;;;;;;3.10;0.50;;;;;;;;;;5048029;28;20025;-57
2021/10/16 12:07:36;;;;;;;2.80;0.45;;;;;;;;;;5048335;28;20028;-56
2021/10/16 12:10:20;;;;;;;2.90;0.90;;;;;;;;;;5069451;28;20032;-56
2021/10/16 12:13:07;;;;;;;3.35;0.65;;;;;;;;;;5072766;28;20073;-56
2021/10/16 12:15:45;;;;;;;2.38;0.70;;;;;;;;;;5073288;28;20024;-57
2021/10/16 12:18:20;;;;;;;3.38;0.88;;;;;;;;;;5070405;28;20035;-57
2021/10/16 12:20:47;;;;;;;3.70;0.90;;;;;;;;;;5070297;28;20078;-57
2021/10/16 12:23:12;;;;;;;4.38;0.63;;;;;;;;;;5069790;28;20081;-55
2021/10/16 12:25:44;;;;;;;2.13;0.50;;;;;;;;;;5070050;28;20427;-57
2021/10/16 12:28:09;;;;;;;3.67;0.70;;;;;;;;;;5072071;28;20508;-55
2021/10/16 12:30:34;;;;;;;4.13;0.67;;;;;;;;;;5071905;28;20068;-57
2021/10/16 12:33:01;;;;;;;3.70;0.95;;;;;;;;;;5076890;28;20773;-57
2021/10/16 12:35:26;;;;;;;3.70;0.60;;;;;;;;;;5068626;28;20039;-56
2021/10/16 12:37:55;;;;;;;2.35;0.70;;;;;;;;;;5072871;28;20477;-56
2021/10/16 12:40:32;;;;;;;2.72;1.10;;;;;;;;;;5074435;28;20070;-56
2021/10/16 12:42:57;;;;;;;2.60;0.63;;;;;;;;;;5074147;28;20361;-56
2021/10/16 12:45:33;;;;;;;3.75;0.65;;;;;;;;;;5074128;28;20040;-54
2021/10/16 12:48:19;;;;;;;3.83;0.70;;;;;;;;;;5074244;28;20024;-56
2021/10/16 12:50:51;;;;;;;4.07;0.80;;;;;;;;;;5073084;28;20103;-55
2021/10/16 12:53:17;;;;;;;4.25;1.00;;;;;;;;;;5073752;28;20025;-56
2021/10/16 12:55:42;;;;;;;1.75;0.55;;;;;;;;;;5068031;28;20492;-56
2021/10/16 12:58:08;;;;;;;2.70;0.70;;;;;;;;;;5072828;28;20031;-58
2021/10/16 13:00:33;;;;;;;3.17;0.50;;;;;;;;;;5073282;28;20499;-56
2021/10/16 13:02:58;;;;;;;2.13;0.57;;;;;;;;;;5073075;28;20027;-56
2021/10/16 13:05:24;;;;;;;3.40;0.55;;;;;;;;;;5073245;28;20465;-57
2021/10/16 13:07:50;;;;;;;4.28;0.45;;;;;;;;;;5073751;28;20043;-55
2021/10/16 13:10:15;;;;;;;2.58;0.45;;;;;;;;;;5073182;28;20469;-57
2021/10/16 13:12:44;;;;;;;3.88;0.50;;;;;;;;;;5072694;28;20285;-57
2021/10/16 13:15:10;;;;;;;5.22;0.90;;;;;;;;;;5073742;28;20095;-58
2021/10/16 13:17:35;;;;;;;3.53;0.50;;;;;;;;;;5073004;28;20024;-57
2021/10/16 13:20:00;;;;;;;3.55;0.43;;;;;;;;;;5073085;28;20051;-57
2021/10/16 13:22:26;;;;;;;5.68;0.60;;;;;;;;;;5072634;28;20078;-57
2021/10/16 13:24:51;;;;;;;4.40;0.40;;;;;;;;;;5071393;28;20032;-57
2021/10/16 13:27:17;;;;;;;7.00;0.77;;;;;;;;;;5067866;28;20507;-58
2021/10/16 13:29:42;;;;;;;3.75;0.57;;;;;;;;;;5072493;28;20070;-55
2021/10/16 13:32:09;;;;;;;1.70;0.50;;;;;;;;;;5073500;28;20388;-57
2021/10/16 13:34:34;;;;;;;3.60;0.50;;;;;;;;;;5071844;28;20353;-56
2021/10/16 13:37:00;;;;;;;7.03;0.50;;;;;;;;;;5072495;28;20107;-56
2021/10/16 13:39:25;;;;;;;6.37;0.60;;;;;;;;;;5070373;28;20060;-56
2021/10/16 13:41:50;;;;;;;3.67;0.52;;;;;;;;;;5059099;28;20480;-57
2021/10/16 13:44:16;;;;;;;6.82;0.73;;;;;;;;;;5072302;28;20103;-58
2021/10/16 13:46:41;;;;;;;3.35;0.77;;;;;;;;;;5072775;28;20029;-51
2021/10/16 13:49:07;;;;;;;3.55;0.70;;;;;;;;;;5073155;28;20085;-57
2021/10/16 13:51:32;;;;;;;4.80;0.82;;;;;;;;;;5072085;28;20020;-51
2021/10/16 13:53:57;;;;;;;3.60;0.50;;;;;;;;;;5072790;28;20020;-55
2021/10/16 13:56:22;;;;;;;4.63;0.60;;;;;;;;;;5072527;28;20015;-58
2021/10/16 13:58:47;;;;;;;4.47;0.77;;;;;;;;;;5092720;28;20024;-57
2021/10/16 14:01:13;;;;;;;4.20;0.68;;;;;;;;;;5083100;28;20537;-57
2021/10/16 14:03:38;;;;;;;4.57;0.70;;;;;;;;;;5072444;28;20492;-56
2021/10/16 14:06:03;;;;;;;7.25;0.70;;;;;;;;;;5073221;28;20024;-57
2021/10/16 14:08:28;;;;;;;4.90;0.60;;;;;;;;;;5072910;28;20028;-56
2021/10/16 14:10:53;;;;;;;4.65;0.65;;;;;;;;;;5072853;28;20021;-57
2021/10/16 14:13:19;;;;;;;4.30;0.60;;;;;;;;;;5071076;28;20461;-57
2021/10/16 14:15:44;;;;;;;5.03;0.60;;;;;;;;;;5071721;28;20115;-58
2021/10/16 14:18:09;;;;;;;4.47;0.60;;;;;;;;;;5072379;28;20028;-57
2021/10/16 14:20:34;;;;;;;2.38;0.50;;;;;;;;;;5072065;28;20017;-56
2021/10/16 14:23:00;;;;;;;3.33;0.50;;;;;;;;;;5071588;28;20077;-54
2021/10/16 14:25:25;;;;;;;5.72;0.68;;;;;;;;;;5069124;28;20047;-59
2021/10/16 14:27:50;;;;;;;2.47;0.47;;;;;;;;;;5069015;28;20029;-56
2021/10/16 14:30:18;;;;;;;4.75;0.63;;;;;;;;;;5071678;28;20048;-56